EAG5672 SBEG-SCEL
Flight info
| Callsign | EAG5672 |
|---|---|
| Flight time | N/A |
| Altitude | 32000 |
| Route | SUSNO UL322 VIR UW316 TAR DCT MUMUK UL322 EGIKA DCT ASIMO ASIMO7D/17R |
| Aircraft | B738/M-SDE2E3FGHIRWXY/LB1 |
Departure
| Time | N/A |
|---|---|
| Airport | Eduardo Gomes International Airport (SBEG) |
Arrival
| Time | 2026-05-05 20:13 |
|---|---|
| Airport | Comodoro Arturo Merino Benítez International Airport (SCEL) |
| Time | Latitude | Longitude | Altitude | Speed | Heading |
|---|---|---|---|---|---|
| 2026-05-05 19:52 | -31.78149 | -70.23615 | 29879 ft | 317 kts | 239° |
| 2026-05-05 19:52 | -31.79798 | -70.25426 | 29871 ft | 333 kts | 227° |
| 2026-05-05 19:52 | -31.81759 | -70.26918 | 29862 ft | 339 kts | 222° |
| 2026-05-05 19:53 | -31.85771 | -70.29792 | 29850 ft | 338 kts | 224° |
| 2026-05-05 19:53 | -31.89617 | -70.32882 | 29850 ft | 330 kts | 230° |
| 2026-05-05 19:53 | -31.91594 | -70.34364 | 29832 ft | 350 kts | 214° |
| 2026-05-05 19:54 | -31.93943 | -70.35278 | 29819 ft | 349 kts | 214° |
| 2026-05-05 19:54 | -31.96072 | -70.36532 | 29227 ft | 341 kts | 223° |
| 2026-05-05 19:54 | -31.98124 | -70.38030 | 28308 ft | 354 kts | 224° |
| 2026-05-05 19:54 | -32.00252 | -70.39643 | 27123 ft | 374 kts | 223° |
| 2026-05-05 19:55 | -32.02497 | -70.41355 | 25794 ft | 395 kts | 221° |
| 2026-05-05 19:55 | -32.04858 | -70.43158 | 24477 ft | 413 kts | 220° |
| 2026-05-05 19:55 | -32.07316 | -70.45033 | 23184 ft | 427 kts | 219° |
| 2026-05-05 19:55 | -32.09842 | -70.46954 | 21936 ft | 439 kts | 218° |
| 2026-05-05 19:56 | -32.12390 | -70.48894 | 21078 ft | 440 kts | 217° |
| 2026-05-05 19:56 | -32.14963 | -70.50830 | 20258 ft | 439 kts | 216° |
| 2026-05-05 19:56 | -32.17577 | -70.52684 | 19520 ft | 437 kts | 215° |
| 2026-05-05 19:56 | -32.20167 | -70.54525 | 18900 ft | 431 kts | 216° |
| 2026-05-05 19:57 | -32.22690 | -70.56338 | 18790 ft | 413 kts | 216° |
| 2026-05-05 19:57 | -32.24287 | -70.57490 | 18778 ft | 401 kts | 216° |
| 2026-05-05 19:57 | -32.27383 | -70.59726 | 18734 ft | 379 kts | 216° |
| 2026-05-05 19:57 | -32.29585 | -70.61318 | 18647 ft | 365 kts | 216° |
| 2026-05-05 19:58 | -32.31738 | -70.62874 | 18322 ft | 360 kts | 216° |
| 2026-05-05 19:58 | -32.33871 | -70.64413 | 17844 ft | 359 kts | 216° |
| 2026-05-05 19:58 | -32.35972 | -70.65934 | 17379 ft | 358 kts | 216° |
| 2026-05-05 19:58 | -32.38100 | -70.67476 | 16912 ft | 358 kts | 216° |
| 2026-05-05 19:59 | -32.40215 | -70.69011 | 16450 ft | 357 kts | 215° |
| 2026-05-05 19:59 | -32.42336 | -70.70549 | 15988 ft | 356 kts | 215° |
| 2026-05-05 19:59 | -32.44448 | -70.72083 | 15529 ft | 355 kts | 215° |
| 2026-05-05 19:59 | -32.46558 | -70.73610 | 15072 ft | 355 kts | 214° |
| 2026-05-05 20:00 | -32.48658 | -70.75133 | 14617 ft | 354 kts | 214° |
| 2026-05-05 20:00 | -32.50763 | -70.76663 | 14160 ft | 353 kts | 214° |
| 2026-05-05 20:00 | -32.52829 | -70.78166 | 13688 ft | 353 kts | 214° |
| 2026-05-05 20:00 | -32.54931 | -70.79696 | 13162 ft | 355 kts | 214° |
| 2026-05-05 20:01 | -32.57103 | -70.81177 | 12672 ft | 356 kts | 207° |
| 2026-05-05 20:01 | -32.59430 | -70.82097 | 12224 ft | 358 kts | 193° |
| 2026-05-05 20:01 | -32.61905 | -70.82431 | 11776 ft | 358 kts | 182° |
| 2026-05-05 20:01 | -32.64382 | -70.82297 | 11490 ft | 353 kts | 176° |
| 2026-05-05 20:02 | -32.66790 | -70.82065 | 11405 ft | 341 kts | 178° |
| 2026-05-05 20:02 | -32.69129 | -70.81942 | 11321 ft | 330 kts | 179° |
| 2026-05-05 20:02 | -32.71388 | -70.81858 | 11237 ft | 320 kts | 179° |
| 2026-05-05 20:02 | -32.73554 | -70.81779 | 11156 ft | 310 kts | 179° |
| 2026-05-05 20:03 | -32.75705 | -70.81702 | 11031 ft | 303 kts | 179° |
| 2026-05-05 20:03 | -32.77785 | -70.81626 | 10724 ft | 302 kts | 179° |
| 2026-05-05 20:03 | -32.79887 | -70.81549 | 10408 ft | 302 kts | 179° |
| 2026-05-05 20:03 | -32.81983 | -70.81473 | 10093 ft | 301 kts | 179° |
| 2026-05-05 20:04 | -32.84082 | -70.81397 | 9774 ft | 301 kts | 178° |
| 2026-05-05 20:04 | -32.86178 | -70.81320 | 9453 ft | 301 kts | 178° |
| 2026-05-05 20:04 | -32.88262 | -70.81245 | 9132 ft | 300 kts | 178° |
| 2026-05-05 20:04 | -32.90348 | -70.81169 | 8830 ft | 299 kts | 178° |
| 2026-05-05 20:05 | -32.92433 | -70.81179 | 8526 ft | 299 kts | 183° |
| 2026-05-05 20:05 | -32.94492 | -70.81446 | 8214 ft | 298 kts | 187° |
| 2026-05-05 20:05 | -32.96553 | -70.81786 | 7904 ft | 298 kts | 187° |
| 2026-05-05 20:05 | -32.98579 | -70.82103 | 7588 ft | 298 kts | 186° |
| 2026-05-05 20:06 | -33.00636 | -70.82373 | 7259 ft | 297 kts | 181° |
| 2026-05-05 20:06 | -33.02708 | -70.82396 | 6927 ft | 296 kts | 175° |
| 2026-05-05 20:06 | -33.04754 | -70.82239 | 6620 ft | 293 kts | 171° |
| 2026-05-05 20:06 | -33.05515 | -70.82161 | 6591 ft | 289 kts | 172° |
| 2026-05-05 20:07 | -33.07196 | -70.82030 | 6519 ft | 281 kts | 173° |
| 2026-05-05 20:07 | -33.09109 | -70.81904 | 6479 ft | 268 kts | 173° |
| 2026-05-05 20:07 | -33.10928 | -70.81796 | 6446 ft | 256 kts | 173° |
| 2026-05-05 20:07 | -33.12693 | -70.81696 | 6248 ft | 251 kts | 173° |
| 2026-05-05 20:08 | -33.14441 | -70.81600 | 5930 ft | 252 kts | 173° |
| 2026-05-05 20:08 | -33.16183 | -70.81505 | 5595 ft | 246 kts | 173° |
| 2026-05-05 20:08 | -33.17868 | -70.81414 | 5280 ft | 240 kts | 173° |
| 2026-05-05 20:08 | -33.19536 | -70.81324 | 4980 ft | 239 kts | 174° |
| 2026-05-05 20:09 | -33.21201 | -70.81235 | 4649 ft | 240 kts | 174° |
| 2026-05-05 20:09 | -33.22837 | -70.81147 | 4326 ft | 235 kts | 175° |
| 2026-05-05 20:09 | -33.24442 | -70.81059 | 4019 ft | 222 kts | 176° |
| 2026-05-05 20:09 | -33.25941 | -70.80978 | 3729 ft | 210 kts | 177° |
| 2026-05-05 20:10 | -33.27341 | -70.80904 | 3476 ft | 196 kts | 178° |
| 2026-05-05 20:10 | -33.28662 | -70.80834 | 3203 ft | 184 kts | 179° |
| 2026-05-05 20:10 | -33.29912 | -70.80768 | 2967 ft | 176 kts | 179° |
| 2026-05-05 20:10 | -33.31101 | -70.80704 | 2772 ft | 165 kts | 180° |
| 2026-05-05 20:11 | -33.32225 | -70.80643 | 2536 ft | 160 kts | 180° |
| 2026-05-05 20:11 | -33.33317 | -70.80585 | 2321 ft | 154 kts | 180° |
| 2026-05-05 20:11 | -33.34378 | -70.80528 | 2122 ft | 151 kts | 180° |
| 2026-05-05 20:11 | -33.35414 | -70.80473 | 1907 ft | 148 kts | 179° |
| 2026-05-05 20:12 | -33.36413 | -70.80414 | 1720 ft | 143 kts | 180° |
| 2026-05-05 20:12 | -33.37403 | -70.80365 | 1574 ft | 138 kts | 179° |
| 2026-05-05 20:12 | -33.38275 | -70.80317 | 1564 ft | 108 kts | 177° |
| 2026-05-05 20:12 | -33.38813 | -70.80287 | 1563 ft | 57 kts | 178° |
| 2026-05-05 20:13 | -33.39134 | -70.80268 | 1563 ft | 33 kts | 175° |
| 2026-05-05 20:13 | -33.39342 | -70.80188 | 1563 ft | 29 kts | 147° |
| 2026-05-05 20:13 | -33.39427 | -70.80126 | 1563 ft | 2 kts | 149° |
| 2026-05-05 20:13 | -33.39436 | -70.80119 | 1563 ft | 1 kts | 149° |
| 2026-05-05 20:14 | -33.39443 | -70.80114 | 1563 ft | 2 kts | 149° |
| 2026-05-05 20:14 | -33.39469 | -70.80095 | 1563 ft | 7 kts | 148° |
| 2026-05-05 20:14 | -33.39546 | -70.80051 | 1563 ft | 11 kts | 166° |
| 2026-05-05 20:14 | -33.39635 | -70.80036 | 1563 ft | 14 kts | 176° |
| 2026-05-05 20:15 | -33.39703 | -70.80033 | 1563 ft | 16 kts | 180° |
| 2026-05-05 20:15 | -33.39815 | -70.80027 | 1563 ft | 16 kts | 168° |
| 2026-05-05 20:15 | -33.39852 | -70.79968 | 1563 ft | 0 kts | 100° |
| 2026-05-05 20:16 | -33.39853 | -70.79964 | 1563 ft | 3 kts | 99° |
| 2026-05-05 20:16 | -33.39851 | -70.79907 | 1563 ft | 10 kts | 86° |
| 2026-05-05 20:16 | -33.39864 | -70.79827 | 1563 ft | 10 kts | 97° |
| 2026-05-05 20:17 | -33.39910 | -70.79801 | 1563 ft | 8 kts | 180° |
| 2026-05-05 20:17 | -33.39932 | -70.79801 | 1563 ft | 1 kts | 178° |
| 2026-05-05 20:17 | -33.39937 | -70.79800 | 1563 ft | 0 kts | 177° |